sensor_id;sensor_type;location;lat;lon;timestamp;pressure;altitude;pressure_sealevel;temperature;humidity
10946;BME280;5525;42.648;23.368;2023-01-24T00:00:16;95673.09;;;5.46;100.00
10946;BME280;5525;42.648;23.368;2023-01-24T00:02:43;95643.13;;;5.44;100.00
10946;BME280;5525;42.648;23.368;2023-01-24T00:05:10;95657.06;;;5.61;100.00
10946;BME280;5525;42.648;23.368;2023-01-24T00:07:36;95664.00;;;5.57;100.00
10946;BME280;5525;42.648;23.368;2023-01-24T00:10:04;95675.00;;;5.61;100.00
10946;BME280;5525;42.648;23.368;2023-01-24T00:12:33;95674.97;;;5.56;100.00
10946;BME280;5525;42.648;23.368;2023-01-24T00:15:00;95674.97;;;5.56;100.00
10946;BME280;5525;42.648;23.368;2023-01-24T00:17:27;95673.38;;;5.55;100.00
10946;BME280;5525;42.648;23.368;2023-01-24T00:19:54;95673.66;;;5.63;100.00
10946;BME280;5525;42.648;23.368;2023-01-24T00:22:21;95685.16;;;5.59;100.00
10946;BME280;5525;42.648;23.368;2023-01-24T00:24:48;95675.81;;;5.56;100.00
10946;BME280;5525;42.648;23.368;2023-01-24T00:27:15;95679.56;;;5.50;100.00
10946;BME280;5525;42.648;23.368;2023-01-24T00:29:43;95673.66;;;5.48;100.00
10946;BME280;5525;42.648;23.368;2023-01-24T00:32:10;95685.16;;;5.54;100.00
10946;BME280;5525;42.648;23.368;2023-01-24T00:34:37;95685.72;;;5.61;100.00
10946;BME280;5525;42.648;23.368;2023-01-24T00:37:05;95685.19;;;5.64;100.00
10946;BME280;5525;42.648;23.368;2023-01-24T00:39:32;95683.00;;;5.51;100.00
10946;BME280;5525;42.648;23.368;2023-01-24T00:41:58;95676.31;;;5.48;100.00
10946;BME280;5525;42.648;23.368;2023-01-24T00:44:25;95685.69;;;5.51;100.00
10946;BME280;5525;42.648;23.368;2023-01-24T00:46:54;95684.63;;;5.47;100.00
10946;BME280;5525;42.648;23.368;2023-01-24T00:49:20;95661.31;;;5.42;100.00
10946;BME280;5525;42.648;23.368;2023-01-24T00:51:47;95684.63;;;5.57;100.00
10946;BME280;5525;42.648;23.368;2023-01-24T00:54:15;95678.47;;;5.56;100.00
10946;BME280;5525;42.648;23.368;2023-01-24T00:56:41;95681.94;;;5.57;100.00
10946;BME280;5525;42.648;23.368;2023-01-24T00:59:08;95687.28;;;5.57;100.00
10946;BME280;5525;42.648;23.368;2023-01-24T01:01:35;95676.31;;;5.43;100.00
10946;BME280;5525;42.648;23.368;2023-01-24T01:04:04;95677.13;;;5.49;100.00
10946;BME280;5525;42.648;23.368;2023-01-24T01:06:31;95682.47;;;5.54;100.00
10946;BME280;5525;42.648;23.368;2023-01-24T01:08:58;95688.63;;;5.49;100.00
10946;BME280;5525;42.648;23.368;2023-01-24T01:11:25;95683.56;;;5.53;100.00
10946;BME280;5525;42.648;23.368;2023-01-24T01:13:54;95677.41;;;5.47;100.00
10946;BME280;5525;42.648;23.368;2023-01-24T01:16:21;95678.72;;;5.35;100.00
10946;BME280;5525;42.648;23.368;2023-01-24T01:18:50;95681.69;;;5.33;100.00
10946;BME280;5525;42.648;23.368;2023-01-24T01:21:21;95680.06;;;5.32;100.00
10946;BME280;5525;42.648;23.368;2023-01-24T01:23:48;95693.44;;;5.32;100.00
10946;BME280;5525;42.648;23.368;2023-01-24T01:26:17;95691.56;;;5.33;100.00
10946;BME280;5525;42.648;23.368;2023-01-24T01:28:44;95699.88;;;5.36;100.00
10946;BME280;5525;42.648;23.368;2023-01-24T01:31:12;95695.31;;;5.27;100.00
10946;BME280;5525;42.648;23.368;2023-01-24T01:33:39;95689.44;;;5.19;100.00
10946;BME280;5525;42.648;23.368;2023-01-24T01:36:07;95676.84;;;5.15;100.00
10946;BME280;5525;42.648;23.368;2023-01-24T01:38:35;95694.22;;;5.17;100.00
10946;BME280;5525;42.648;23.368;2023-01-24T01:41:02;95681.63;;;5.13;100.00
10946;BME280;5525;42.648;23.368;2023-01-24T01:43:30;95681.66;;;5.18;100.00
10946;BME280;5525;42.648;23.368;2023-01-24T01:46:00;95685.94;;;5.24;100.00
10946;BME280;5525;42.648;23.368;2023-01-24T01:48:37;95674.72;;;5.27;100.00
10946;BME280;5525;42.648;23.368;2023-01-24T01:51:17;95676.28;;;5.08;100.00
10946;BME280;5525;42.648;23.368;2023-01-24T01:53:50;95673.91;;;5.16;100.00
10946;BME280;5525;42.648;23.368;2023-01-24T01:56:23;95673.09;;;5.16;100.00
10946;BME280;5525;42.648;23.368;2023-01-24T01:58:51;95680.56;;;5.14;100.00
10946;BME280;5525;42.648;23.368;2023-01-24T02:01:20;95684.06;;;5.19;100.00
10946;BME280;5525;42.648;23.368;2023-01-24T02:03:50;95690.19;;;5.10;100.00
10946;BME280;5525;42.648;23.368;2023-01-24T02:06:29;95687.78;;;5.03;100.00
10946;BME280;5525;42.648;23.368;2023-01-24T02:09:01;95661.53;;;4.90;100.00
10946;BME280;5525;42.648;23.368;2023-01-24T02:11:29;95673.28;;;4.89;100.00
10946;BME280;5525;42.648;23.368;2023-01-24T02:14:06;95676.25;;;4.93;100.00
10946;BME280;5525;42.648;23.368;2023-01-24T02:16:51;95670.63;;;4.94;100.00
10946;BME280;5525;42.648;23.368;2023-01-24T02:19:40;95673.31;;;4.99;100.00
10946;BME280;5525;42.648;23.368;2023-01-24T02:22:15;95673.31;;;5.04;100.00
10946;BME280;5525;42.648;23.368;2023-01-24T02:24:52;95674.38;;;4.98;100.00
10946;BME280;5525;42.648;23.368;2023-01-24T02:27:26;95681.34;;;5.04;100.00
10946;BME280;5525;42.648;23.368;2023-01-24T02:29:53;95675.97;;;5.04;100.00
10946;BME280;5525;42.648;23.368;2023-01-24T02:32:22;95679.19;;;4.91;100.00
10946;BME280;5525;42.648;23.368;2023-01-24T02:34:48;95651.84;;;4.79;100.00
10946;BME280;5525;42.648;23.368;2023-01-24T02:37:15;95660.66;;;4.80;100.00
10946;BME280;5525;42.648;23.368;2023-01-24T02:39:47;95672.16;;;4.75;100.00
10946;BME280;5525;42.648;23.368;2023-01-24T02:42:19;95663.03;;;4.66;100.00
10946;BME280;5525;42.648;23.368;2023-01-24T02:44:53;95681.25;;;4.74;100.00
10946;BME280;5525;42.648;23.368;2023-01-24T02:47:26;95685.81;;;4.74;100.00
10946;BME280;5525;42.648;23.368;2023-01-24T02:49:57;95679.94;;;4.77;100.00
10946;BME280;5525;42.648;23.368;2023-01-24T02:52:24;95662.75;;;4.63;100.00
10946;BME280;5525;42.648;23.368;2023-01-24T02:55:09;95674.28;;;4.68;100.00
10946;BME280;5525;42.648;23.368;2023-01-24T02:57:36;95671.03;;;4.61;100.00
10946;BME280;5525;42.648;23.368;2023-01-24T03:00:22;95636.19;;;4.36;100.00
10946;BME280;5525;42.648;23.368;2023-01-24T03:02:49;95668.38;;;4.56;100.00
10946;BME280;5525;42.648;23.368;2023-01-24T03:05:16;95671.03;;;4.56;100.00
10946;BME280;5525;42.648;23.368;2023-01-24T03:07:43;95661.91;;;4.52;100.00
10946;BME280;5525;42.648;23.368;2023-01-24T03:10:11;95659.25;;;4.47;100.00
10946;BME280;5525;42.648;23.368;2023-01-24T03:12:38;95674.50;;;4.52;100.00
10946;BME280;5525;42.648;23.368;2023-01-24T03:15:23;95666.47;;;4.52;100.00
10946;BME280;5525;42.648;23.368;2023-01-24T03:18:08;95668.06;;;4.53;100.00
10946;BME280;5525;42.648;23.368;2023-01-24T03:20:53;95673.44;;;4.53;100.00
10946;BME280;5525;42.648;23.368;2023-01-24T03:23:37;95651.44;;;4.41;100.00
10946;BME280;5525;42.648;23.368;2023-01-24T03:26:22;95667.28;;;4.57;100.00
10946;BME280;5525;42.648;23.368;2023-01-24T03:29:06;95667.25;;;4.47;100.00
10946;BME280;5525;42.648;23.368;2023-01-24T03:31:52;95670.19;;;4.51;100.00
10946;BME280;5525;42.648;23.368;2023-01-24T03:34:36;95669.69;;;4.54;100.00
10946;BME280;5525;42.648;23.368;2023-01-24T03:37:14;95656.25;;;4.39;100.00
10946;BME280;5525;42.648;23.368;2023-01-24T03:39:41;95662.94;;;4.41;100.00
10946;BME280;5525;42.648;23.368;2023-01-24T03:42:24;95667.72;;;4.34;100.00
10946;BME280;5525;42.648;23.368;2023-01-24T03:44:51;95664.31;;;4.44;100.00
10946;BME280;5525;42.648;23.368;2023-01-24T03:47:20;95668.53;;;4.40;100.00
10946;BME280;5525;42.648;23.368;2023-01-24T03:49:46;95644.97;;;4.27;100.00
10946;BME280;5525;42.648;23.368;2023-01-24T03:52:31;95661.34;;;4.40;100.00
10946;BME280;5525;42.648;23.368;2023-01-24T03:54:59;95665.34;;;4.43;100.00
10946;BME280;5525;42.648;23.368;2023-01-24T03:57:27;95655.97;;;4.35;100.00
10946;BME280;5525;42.648;23.368;2023-01-24T03:59:54;95660.53;;;4.35;100.00
10946;BME280;5525;42.648;23.368;2023-01-24T04:02:23;95647.38;;;4.28;100.00
10946;BME280;5525;42.648;23.368;2023-01-24T04:04:50;95661.03;;;4.32;100.00
10946;BME280;5525;42.648;23.368;2023-01-24T04:07:34;95663.16;;;4.30;100.00
10946;BME280;5525;42.648;23.368;2023-01-24T04:10:02;95659.41;;;4.31;100.00
10946;BME280;5525;42.648;23.368;2023-01-24T04:12:29;95648.41;;;4.17;100.00
10946;BME280;5525;42.648;23.368;2023-01-24T04:14:55;95658.59;;;4.25;100.00
10946;BME280;5525;42.648;23.368;2023-01-24T04:17:24;95651.34;;;4.21;100.00
10946;BME280;5525;42.648;23.368;2023-01-24T04:19:50;95651.91;;;4.28;100.00
10946;BME280;5525;42.648;23.368;2023-01-24T04:22:17;95659.13;;;4.22;100.00
10946;BME280;5525;42.648;23.368;2023-01-24T04:24:45;95657.78;;;4.25;100.00
10946;BME280;5525;42.648;23.368;2023-01-24T04:27:12;95643.78;;;4.08;100.00
10946;BME280;5525;42.648;23.368;2023-01-24T04:29:39;95649.44;;;4.11;100.00
10946;BME280;5525;42.648;23.368;2023-01-24T04:32:06;95624.75;;;3.94;100.00
10946;BME280;5525;42.648;23.368;2023-01-24T04:34:35;95602.22;;;3.75;100.00
10946;BME280;5525;42.648;23.368;2023-01-24T04:37:01;95637.63;;;4.02;100.00
10946;BME280;5525;42.648;23.368;2023-01-24T04:39:28;95657.19;;;4.13;100.00
10946;BME280;5525;42.648;23.368;2023-01-24T04:41:55;95664.16;;;4.19;100.00
10946;BME280;5525;42.648;23.368;2023-01-24T04:44:22;95657.75;;;4.15;100.00
10946;BME280;5525;42.648;23.368;2023-01-24T04:46:49;95660.94;;;4.12;100.00
10946;BME280;5525;42.648;23.368;2023-01-24T04:49:16;95652.41;;;4.15;100.00
10946;BME280;5525;42.648;23.368;2023-01-24T04:51:46;95664.13;;;4.14;100.00
10946;BME280;5525;42.648;23.368;2023-01-24T04:54:13;95659.56;;;4.04;100.00
10946;BME280;5525;42.648;23.368;2023-01-24T04:56:40;95651.00;;;4.02;100.00
10946;BME280;5525;42.648;23.368;2023-01-24T04:59:07;95626.28;;;3.80;100.00
10946;BME280;5525;42.648;23.368;2023-01-24T05:01:34;95663.53;;;4.02;100.00
10946;BME280;5525;42.648;23.368;2023-01-24T05:04:01;95666.50;;;4.05;100.00
10946;BME280;5525;42.648;23.368;2023-01-24T05:06:28;95671.28;;;3.98;100.00
10946;BME280;5525;42.648;23.368;2023-01-24T05:08:57;95665.94;;;4.03;100.00
10946;BME280;5525;42.648;23.368;2023-01-24T05:11:24;95667.06;;;4.12;100.00
10946;BME280;5525;42.648;23.368;2023-01-24T05:13:51;95672.72;;;4.16;100.00
10946;BME280;5525;42.648;23.368;2023-01-24T05:16:18;95671.59;;;4.07;100.00
10946;BME280;5525;42.648;23.368;2023-01-24T05:18:45;95673.69;;;4.00;100.00
10946;BME280;5525;42.648;23.368;2023-01-24T05:21:15;95690.28;;;4.07;100.00
10946;BME280;5525;42.648;23.368;2023-01-24T05:23:42;95695.13;;;4.10;100.00
10946;BME280;5525;42.648;23.368;2023-01-24T05:26:10;95698.88;;;4.09;100.00
10946;BME280;5525;42.648;23.368;2023-01-24T05:28:37;95699.66;;;4.04;100.00
10946;BME280;5525;42.648;23.368;2023-01-24T05:31:05;95696.72;;;4.06;100.00
10946;BME280;5525;42.648;23.368;2023-01-24T05:33:33;95703.09;;;4.00;100.00
10946;BME280;5525;42.648;23.368;2023-01-24T05:36:02;95706.63;;;4.15;100.00
10946;BME280;5525;42.648;23.368;2023-01-24T05:38:30;95707.19;;;4.17;100.00
10946;BME280;5525;42.648;23.368;2023-01-24T05:40:59;95711.81;;;4.27;100.00
10946;BME280;5525;42.648;23.368;2023-01-24T05:43:28;95710.47;;;4.24;100.00
10946;BME280;5525;42.648;23.368;2023-01-24T05:45:57;95711.72;;;4.12;100.00
10946;BME280;5525;42.648;23.368;2023-01-24T05:48:25;95711.72;;;4.12;100.00
10946;BME280;5525;42.648;23.368;2023-01-24T05:50:56;95723.28;;;4.22;100.00
10946;BME280;5525;42.648;23.368;2023-01-24T05:53:23;95698.00;;;3.98;100.00
10946;BME280;5525;42.648;23.368;2023-01-24T05:55:54;95712.97;;;3.99;100.00
10946;BME280;5525;42.648;23.368;2023-01-24T05:58:21;95726.38;;;4.09;100.00
10946;BME280;5525;42.648;23.368;2023-01-24T06:00:49;95740.31;;;4.11;100.00
10946;BME280;5525;42.648;23.368;2023-01-24T06:03:16;95739.22;;;4.07;100.00
10946;BME280;5525;42.648;23.368;2023-01-24T06:05:45;95732.78;;;4.08;100.00
10946;BME280;5525;42.648;23.368;2023-01-24T06:08:12;95735.41;;;3.98;100.00
10946;BME280;5525;42.648;23.368;2023-01-24T06:10:39;95746.38;;;4.02;100.00
10946;BME280;5525;42.648;23.368;2023-01-24T06:13:05;95745.75;;;3.90;100.00
10946;BME280;5525;42.648;23.368;2023-01-24T06:15:32;95710.19;;;3.53;100.00
10946;BME280;5525;42.648;23.368;2023-01-24T06:18:01;95731.66;;;3.63;100.00
10946;BME280;5525;42.648;23.368;2023-01-24T06:20:28;95735.13;;;3.63;100.00
10946;BME280;5525;42.648;23.368;2023-01-24T06:22:57;95748.34;;;3.80;100.00
10946;BME280;5525;42.648;23.368;2023-01-24T06:25:26;95771.38;;;3.86;100.00
10946;BME280;5525;42.648;23.368;2023-01-24T06:27:53;95751.50;;;3.72;100.00
10946;BME280;5525;42.648;23.368;2023-01-24T06:30:21;95764.91;;;3.77;100.00
10946;BME280;5525;42.648;23.368;2023-01-24T06:33:05;95761.38;;;3.71;100.00
10946;BME280;5525;42.648;23.368;2023-01-24T06:35:37;95775.84;;;3.75;100.00
10946;BME280;5525;42.648;23.368;2023-01-24T06:38:18;95776.56;;;3.71;100.00
10946;BME280;5525;42.648;23.368;2023-01-24T06:40:47;95769.06;;;3.68;100.00
10946;BME280;5525;42.648;23.368;2023-01-24T06:43:15;95775.47;;;3.67;100.00
10946;BME280;5525;42.648;23.368;2023-01-24T06:45:42;95785.81;;;3.58;100.00
10946;BME280;5525;42.648;23.368;2023-01-24T06:48:11;95793.28;;;3.56;100.00
10946;BME280;5525;42.648;23.368;2023-01-24T06:50:37;95754.28;;;3.28;100.00
10946;BME280;5525;42.648;23.368;2023-01-24T06:53:04;95788.50;;;3.58;100.00
10946;BME280;5525;42.648;23.368;2023-01-24T06:55:33;95766.69;;;3.39;100.00
10946;BME280;5525;42.648;23.368;2023-01-24T06:58:02;95786.88;;;3.57;100.00
10946;BME280;5525;42.648;23.368;2023-01-24T07:00:29;95801.63;;;3.65;100.00
10946;BME280;5525;42.648;23.368;2023-01-24T07:02:57;95804.00;;;3.61;100.00
10946;BME280;5525;42.648;23.368;2023-01-24T07:05:26;95796.91;;;3.72;100.00
10946;BME280;5525;42.648;23.368;2023-01-24T07:07:53;95801.09;;;3.63;100.00
10946;BME280;5525;42.648;23.368;2023-01-24T07:10:20;95797.84;;;3.61;100.00
10946;BME280;5525;42.648;23.368;2023-01-24T07:12:47;95799.50;;;3.67;100.00
10946;BME280;5525;42.648;23.368;2023-01-24T07:15:14;95782.03;;;3.54;100.00
10946;BME280;5525;42.648;23.368;2023-01-24T07:17:42;95795.88;;;3.51;100.00
10946;BME280;5525;42.648;23.368;2023-01-24T07:20:10;95805.16;;;3.70;100.00
10946;BME280;5525;42.648;23.368;2023-01-24T07:22:40;95795.75;;;3.63;100.00
10946;BME280;5525;42.648;23.368;2023-01-24T07:25:12;95814.31;;;3.53;100.00
10946;BME280;5525;42.648;23.368;2023-01-24T07:27:40;95786.16;;;3.40;100.00
10946;BME280;5525;42.648;23.368;2023-01-24T07:30:08;95805.22;;;3.48;100.00
10946;BME280;5525;42.648;23.368;2023-01-24T07:32:38;95808.34;;;3.40;100.00
10946;BME280;5525;42.648;23.368;2023-01-24T07:35:06;95813.16;;;3.43;100.00
10946;BME280;5525;42.648;23.368;2023-01-24T07:37:40;95814.78;;;3.44;100.00
10946;BME280;5525;42.648;23.368;2023-01-24T07:40:10;95817.09;;;3.36;100.00
10946;BME280;5525;42.648;23.368;2023-01-24T07:42:39;95822.38;;;3.31;100.00
10946;BME280;5525;42.648;23.368;2023-01-24T07:45:07;95826.97;;;3.35;100.00
10946;BME280;5525;42.648;23.368;2023-01-24T07:47:36;95794.56;;;3.27;100.00
10946;BME280;5525;42.648;23.368;2023-01-24T07:50:06;95831.59;;;3.45;100.00
10946;BME280;5525;42.648;23.368;2023-01-24T07:52:35;95825.66;;;3.38;100.00
10946;BME280;5525;42.648;23.368;2023-01-24T07:55:05;95844.50;;;3.53;100.00
10946;BME280;5525;42.648;23.368;2023-01-24T07:57:37;95842.69;;;3.59;100.00
10946;BME280;5525;42.648;23.368;2023-01-24T08:00:05;95830.53;;;3.46;100.00
10946;BME280;5525;42.648;23.368;2023-01-24T08:02:32;95837.25;;;3.48;100.00
10946;BME280;5525;42.648;23.368;2023-01-24T08:04:59;95844.50;;;3.53;100.00
10946;BME280;5525;42.648;23.368;2023-01-24T08:07:27;95839.63;;;3.45;100.00
10946;BME280;5525;42.648;23.368;2023-01-24T08:09:55;95842.47;;;3.38;100.00
10946;BME280;5525;42.648;23.368;2023-01-24T08:12:29;95843.28;;;3.39;100.00
10946;BME280;5525;42.648;23.368;2023-01-24T08:14:56;95842.66;;;3.54;100.00
10946;BME280;5525;42.648;23.368;2023-01-24T08:17:23;95839.63;;;3.45;100.00
10946;BME280;5525;42.648;23.368;2023-01-24T08:19:50;95842.34;;;3.50;100.00
10946;BME280;5525;42.648;23.368;2023-01-24T08:22:19;95851.28;;;3.61;100.00
10946;BME280;5525;42.648;23.368;2023-01-24T08:24:46;95843.56;;;3.64;100.00
10946;BME280;5525;42.648;23.368;2023-01-24T08:27:13;95845.41;;;3.64;100.00
10946;BME280;5525;42.648;23.368;2023-01-24T08:29:42;95847.53;;;3.62;100.00
10946;BME280;5525;42.648;23.368;2023-01-24T08:32:09;95853.59;;;3.52;100.00
10946;BME280;5525;42.648;23.368;2023-01-24T08:34:36;95848.28;;;3.57;100.00
10946;BME280;5525;42.648;23.368;2023-01-24T08:37:04;95837.63;;;3.35;100.00
10946;BME280;5525;42.648;23.368;2023-01-24T08:39:35;95835.44;;;3.54;100.00
10946;BME280;5525;42.648;23.368;2023-01-24T08:42:05;95856.69;;;3.97;100.00
10946;BME280;5525;42.648;23.368;2023-01-24T08:44:33;95848.78;;;4.07;100.00
10946;BME280;5525;42.648;23.368;2023-01-24T08:47:02;95852.84;;;4.15;100.00
10946;BME280;5525;42.648;23.368;2023-01-24T08:49:29;95847.13;;;4.33;100.00
10946;BME280;5525;42.648;23.368;2023-01-24T08:51:56;95842.84;;;4.37;100.00
10946;BME280;5525;42.648;23.368;2023-01-24T08:54:25;95853.22;;;4.28;100.00
10946;BME280;5525;42.648;23.368;2023-01-24T08:56:52;95850.59;;;4.33;100.00
10946;BME280;5525;42.648;23.368;2023-01-24T08:59:20;95840.16;;;4.32;100.00
10946;BME280;5525;42.648;23.368;2023-01-24T09:01:47;95847.41;;;4.36;100.00
10946;BME280;5525;42.648;23.368;2023-01-24T09:04:16;95847.31;;;4.58;100.00
10946;BME280;5525;42.648;23.368;2023-01-24T09:06:43;95825.72;;;4.33;100.00
10946;BME280;5525;42.648;23.368;2023-01-24T09:09:09;95843.41;;;4.39;100.00
10946;BME280;5525;42.648;23.368;2023-01-24T09:11:36;95840.28;;;4.47;100.00
10946;BME280;5525;42.648;23.368;2023-01-24T09:14:03;95828.72;;;4.41;100.00
10946;BME280;5525;42.648;23.368;2023-01-24T09:16:30;95848.50;;;4.40;100.00
10946;BME280;5525;42.648;23.368;2023-01-24T09:18:58;95842.22;;;4.56;100.00
10946;BME280;5525;42.648;23.368;2023-01-24T09:21:26;95836.59;;;4.58;100.00
10946;BME280;5525;42.648;23.368;2023-01-24T09:23:53;95805.28;;;4.53;100.00
10946;BME280;5525;42.648;23.368;2023-01-24T09:26:20;95838.56;;;4.72;100.00
10946;BME280;5525;42.648;23.368;2023-01-24T09:28:47;95824.91;;;4.74;100.00
10946;BME280;5525;42.648;23.368;2023-01-24T09:31:14;95838.75;;;5.02;100.00
10946;BME280;5525;42.648;23.368;2023-01-24T09:33:41;95833.44;;;5.17;100.00
10946;BME280;5525;42.648;23.368;2023-01-24T09:36:08;95808.50;;;5.07;100.00
10946;BME280;5525;42.648;23.368;2023-01-24T09:38:36;95838.84;;;5.22;100.00
10946;BME280;5525;42.648;23.368;2023-01-24T09:41:10;95826.81;;;5.40;100.00
10946;BME280;5525;42.648;23.368;2023-01-24T09:43:45;95801.88;;;5.24;100.00
10946;BME280;5525;42.648;23.368;2023-01-24T09:46:20;95829.25;;;5.42;100.00
10946;BME280;5525;42.648;23.368;2023-01-24T09:48:54;95817.50;;;5.53;100.00
10946;BME280;5525;42.648;23.368;2023-01-24T09:51:28;95817.81;;;5.76;100.00
10946;BME280;5525;42.648;23.368;2023-01-24T09:53:59;95826.91;;;5.75;100.00
10946;BME280;5525;42.648;23.368;2023-01-24T09:56:29;95802.47;;;5.47;100.00
10946;BME280;5525;42.648;23.368;2023-01-24T09:59:09;95826.94;;;5.70;100.00
10946;BME280;5525;42.648;23.368;2023-01-24T10:01:39;95822.56;;;5.44;100.00
10946;BME280;5525;42.648;23.368;2023-01-24T10:04:15;95822.53;;;5.34;100.00
10946;BME280;5525;42.648;23.368;2023-01-24T10:09:55;95820.25;;;5.06;100.00
10946;BME280;5525;42.648;23.368;2023-01-24T10:12:37;95820.78;;;5.03;100.00
10946;BME280;5525;42.648;23.368;2023-01-24T10:15:21;95814.06;;;4.90;100.00
10946;BME280;5525;42.648;23.368;2023-01-24T10:18:02;95823.75;;;4.60;100.00
10946;BME280;5525;42.648;23.368;2023-01-24T10:20:58;95817.38;;;4.66;100.00
10946;BME280;5525;42.648;23.368;2023-01-24T10:23:29;95810.38;;;4.55;100.00
10946;BME280;5525;42.648;23.368;2023-01-24T10:26:04;95810.09;;;4.51;100.00
10946;BME280;5525;42.648;23.368;2023-01-24T10:28:35;95800.84;;;4.32;100.00
10946;BME280;5525;42.648;23.368;2023-01-24T10:31:09;95789.91;;;4.34;100.00
10946;BME280;5525;42.648;23.368;2023-01-24T10:33:44;95800.56;;;4.29;100.00
10946;BME280;5525;42.648;23.368;2023-01-24T10:36:18;95795.97;;;4.61;100.00
10946;BME280;5525;42.648;23.368;2023-01-24T10:38:46;95775.91;;;4.63;100.00
10946;BME280;5525;42.648;23.368;2023-01-24T10:41:18;95767.59;;;4.55;100.00
10946;BME280;5525;42.648;23.368;2023-01-24T10:43:51;95793.97;;;4.88;100.00
10946;BME280;5525;42.648;23.368;2023-01-24T10:49:26;95776.63;;;5.00;100.00
10946;BME280;5525;42.648;23.368;2023-01-24T10:52:11;95790.69;;;4.76;100.00
10946;BME280;5525;42.648;23.368;2023-01-24T10:54:47;95791.81;;;4.85;100.00
10946;BME280;5525;42.648;23.368;2023-01-24T10:57:34;95783.81;;;4.90;100.00
10946;BME280;5525;42.648;23.368;2023-01-24T11:00:24;95793.41;;;4.86;100.00
10946;BME280;5525;42.648;23.368;2023-01-24T11:02:59;95766.59;;;4.71;100.00
10946;BME280;5525;42.648;23.368;2023-01-24T11:05:37;95798.50;;;4.82;100.00
10946;BME280;5525;42.648;23.368;2023-01-24T11:08:05;95789.28;;;4.63;100.00
10946;BME280;5525;42.648;23.368;2023-01-24T11:10:36;95796.44;;;4.53;100.00
10946;BME280;5525;42.648;23.368;2023-01-24T11:13:30;95799.31;;;4.41;100.00
10946;BME280;5525;42.648;23.368;2023-01-24T11:16:01;95786.41;;;4.28;100.00
10946;BME280;5525;42.648;23.368;2023-01-24T11:18:29;95759.94;;;3.95;100.00
10946;BME280;5525;42.648;23.368;2023-01-24T11:21:07;95785.63;;;3.96;100.00
10946;BME280;5525;42.648;23.368;2023-01-24T11:23:34;95785.19;;;4.09;100.00
10946;BME280;5525;42.648;23.368;2023-01-24T11:26:04;95780.13;;;4.13;100.00
10946;BME280;5525;42.648;23.368;2023-01-24T11:28:34;95772.97;;;4.23;100.00
10946;BME280;5525;42.648;23.368;2023-01-24T11:31:04;95733.47;;;4.30;100.00
10946;BME280;5525;42.648;23.368;2023-01-24T11:33:52;95776.44;;;4.60;100.00
10946;BME280;5525;42.648;23.368;2023-01-24T11:36:34;95766.38;;;4.36;100.00
10946;BME280;5525;42.648;23.368;2023-01-24T11:39:11;95764.72;;;4.25;100.00
10946;BME280;5525;42.648;23.368;2023-01-24T11:41:47;95750.78;;;4.18;100.00
10946;BME280;5525;42.648;23.368;2023-01-24T11:47:14;95741.16;;;4.22;100.00
10946;BME280;5525;42.648;23.368;2023-01-24T11:52:52;95738.25;;;4.23;100.00
10946;BME280;5525;42.648;23.368;2023-01-24T11:55:36;95753.63;;;4.06;100.00
10946;BME280;5525;42.648;23.368;2023-01-24T11:58:33;95760.09;;;4.10;100.00
10946;BME280;5525;42.648;23.368;2023-01-24T12:01:09;95765.78;;;3.87;100.00
10946;BME280;5525;42.648;23.368;2023-01-24T12:03:59;95760.09;;;4.10;100.00
10946;BME280;5525;42.648;23.368;2023-01-24T12:06:36;95762.03;;;4.25;100.00
10946;BME280;5525;42.648;23.368;2023-01-24T12:09:17;95758.06;;;4.27;100.00
10946;BME280;5525;42.648;23.368;2023-01-24T12:11:53;95766.56;;;4.19;100.00
10946;BME280;5525;42.648;23.368;2023-01-24T12:14:43;95748.84;;;4.08;100.00
10946;BME280;5525;42.648;23.368;2023-01-24T12:17:28;95768.38;;;4.14;100.00
10946;BME280;5525;42.648;23.368;2023-01-24T12:20:11;95767.34;;;4.20;100.00
10946;BME280;5525;42.648;23.368;2023-01-24T12:22:48;95757.16;;;4.12;100.00
10946;BME280;5525;42.648;23.368;2023-01-24T12:25:26;95770.50;;;4.12;100.00
10946;BME280;5525;42.648;23.368;2023-01-24T12:28:05;95770.50;;;4.12;100.00
10946;BME280;5525;42.648;23.368;2023-01-24T12:30:41;95757.69;;;4.14;100.00
10946;BME280;5525;42.648;23.368;2023-01-24T12:33:21;95773.75;;;4.19;100.00
10946;BME280;5525;42.648;23.368;2023-01-24T12:35:53;95762.84;;;4.25;100.00
10946;BME280;5525;42.648;23.368;2023-01-24T12:38:31;95772.41;;;4.16;100.00
10946;BME280;5525;42.648;23.368;2023-01-24T12:41:07;95759.53;;;4.08;100.00
10946;BME280;5525;42.648;23.368;2023-01-24T12:43:48;95779.03;;;4.09;100.00
10946;BME280;5525;42.648;23.368;2023-01-24T12:46:25;95775.97;;;3.90;100.00
10946;BME280;5525;42.648;23.368;2023-01-24T12:49:01;95782.84;;;3.81;100.00
10946;BME280;5525;42.648;23.368;2023-01-24T12:51:39;95770.25;;;3.82;100.00
10946;BME280;5525;42.648;23.368;2023-01-24T12:54:13;95774.44;;;3.99;100.00
10946;BME280;5525;42.648;23.368;2023-01-24T12:56:50;95769.13;;;4.04;100.00
10946;BME280;5525;42.648;23.368;2023-01-24T12:59:23;95774.75;;;4.08;100.00
10946;BME280;5525;42.648;23.368;2023-01-24T13:02:27;95769.28;;;4.29;100.00
10946;BME280;5525;42.648;23.368;2023-01-24T13:05:07;95758.56;;;4.71;100.00
10946;BME280;5525;42.648;23.368;2023-01-24T13:07:45;95738.66;;;5.08;100.00
10946;BME280;5525;42.648;23.368;2023-01-24T13:10:19;95775.44;;;5.38;100.00
10946;BME280;5525;42.648;23.368;2023-01-24T13:12:49;95764.91;;;5.16;100.00
10946;BME280;5525;42.648;23.368;2023-01-24T13:15:20;95754.50;;;5.25;100.00
10946;BME280;5525;42.648;23.368;2023-01-24T13:18:00;95755.28;;;5.31;100.00
10946;BME280;5525;42.648;23.368;2023-01-24T13:20:56;95762.00;;;5.28;100.00
10946;BME280;5525;42.648;23.368;2023-01-24T13:23:44;95742.88;;;4.94;100.00
10946;BME280;5525;42.648;23.368;2023-01-24T13:29:30;95753.19;;;4.66;100.00
10946;BME280;5525;42.648;23.368;2023-01-24T13:32:06;95779.19;;;4.75;100.00
10946;BME280;5525;42.648;23.368;2023-01-24T13:34:37;95761.97;;;4.61;100.00
10946;BME280;5525;42.648;23.368;2023-01-24T13:37:15;95769.00;;;4.67;100.00